Cobalt, Connecticut
Current Conditions -  °F | °C
As of 1:55 PM on Tuesday 27 Jan 2015 (Local Time) from KSNC Reporting Station
Light Snow Light Snow  
Wind Chill: 10°   Ceiling: Unl
Heat Index: 25°   Visibility: 2.5mi
Dew Point: 14°   Wind: 21mph
Humidity: 64%   Direction: 360°N
Pressure: 29.53"   Gusts: 31mph
Location:  41.56°N, 72.56°W
Report Text: KSNC 271855Z AUTO 36018G27KT 2 1/2SM -SN FEW060 SCT075 M04/M10 A2953 RMK AO2 P0001
Loading
Personal Weather Stations






























Interactive Weather Map New forecast layout! Learn more

10-Day Weather Forecast

Advertisements
Track Severe Weather on mobile